sensor_id;sensor_type;location;lat;lon;timestamp;P1;durP1;ratioP1;P2;durP2;ratioP2
23080;SDS011;11708;50.570;8.532;2023-04-24T00:00:54;1.55;;;1.20;;
23080;SDS011;11708;50.570;8.532;2023-04-24T00:03:21;1.58;;;1.08;;
23080;SDS011;11708;50.570;8.532;2023-04-24T00:05:50;2.15;;;1.20;;
23080;SDS011;11708;50.570;8.532;2023-04-24T00:08:17;2.53;;;1.20;;
23080;SDS011;11708;50.570;8.532;2023-04-24T00:10:43;2.13;;;1.10;;
23080;SDS011;11708;50.570;8.532;2023-04-24T00:13:09;1.55;;;1.20;;
23080;SDS011;11708;50.570;8.532;2023-04-24T00:15:34;1.35;;;1.00;;
23080;SDS011;11708;50.570;8.532;2023-04-24T00:18:00;1.70;;;1.42;;
23080;SDS011;11708;50.570;8.532;2023-04-24T00:20:26;2.42;;;1.27;;
23080;SDS011;11708;50.570;8.532;2023-04-24T00:22:54;2.00;;;1.33;;
23080;SDS011;11708;50.570;8.532;2023-04-24T00:25:20;4.47;;;1.35;;
23080;SDS011;11708;50.570;8.532;2023-04-24T00:27:45;1.40;;;1.23;;
23080;SDS011;11708;50.570;8.532;2023-04-24T00:30:11;1.70;;;1.27;;
23080;SDS011;11708;50.570;8.532;2023-04-24T00:32:36;2.60;;;1.27;;
23080;SDS011;11708;50.570;8.532;2023-04-24T00:35:02;2.80;;;1.10;;
23080;SDS011;11708;50.570;8.532;2023-04-24T00:37:28;3.22;;;1.20;;
23080;SDS011;11708;50.570;8.532;2023-04-24T00:39:53;1.48;;;1.20;;
23080;SDS011;11708;50.570;8.532;2023-04-24T00:42:20;1.17;;;1.08;;
23080;SDS011;11708;50.570;8.532;2023-04-24T00:44:45;1.50;;;1.00;;
23080;SDS011;11708;50.570;8.532;2023-04-24T00:47:11;1.90;;;1.30;;
23080;SDS011;11708;50.570;8.532;2023-04-24T00:49:38;1.35;;;1.00;;
23080;SDS011;11708;50.570;8.532;2023-04-24T00:52:03;2.58;;;1.25;;
23080;SDS011;11708;50.570;8.532;2023-04-24T00:54:32;1.20;;;1.10;;
23080;SDS011;11708;50.570;8.532;2023-04-24T00:56:58;1.15;;;1.05;;
23080;SDS011;11708;50.570;8.532;2023-04-24T00:59:24;1.17;;;1.08;;
23080;SDS011;11708;50.570;8.532;2023-04-24T01:01:50;1.38;;;1.23;;
23080;SDS011;11708;50.570;8.532;2023-04-24T01:04:16;2.42;;;1.33;;
23080;SDS011;11708;50.570;8.532;2023-04-24T01:06:42;1.38;;;1.20;;
23080;SDS011;11708;50.570;8.532;2023-04-24T01:09:09;2.97;;;1.60;;
23080;SDS011;11708;50.570;8.532;2023-04-24T01:11:37;1.88;;;1.35;;
23080;SDS011;11708;50.570;8.532;2023-04-24T01:14:02;1.42;;;1.33;;
23080;SDS011;11708;50.570;8.532;2023-04-24T01:16:28;2.53;;;1.23;;
23080;SDS011;11708;50.570;8.532;2023-04-24T01:18:54;2.28;;;1.40;;
23080;SDS011;11708;50.570;8.532;2023-04-24T01:21:20;2.30;;;1.40;;
23080;SDS011;11708;50.570;8.532;2023-04-24T01:23:46;5.57;;;1.77;;
23080;SDS011;11708;50.570;8.532;2023-04-24T01:26:12;2.97;;;1.30;;
23080;SDS011;11708;50.570;8.532;2023-04-24T01:28:40;1.70;;;1.33;;
23080;SDS011;11708;50.570;8.532;2023-04-24T01:31:06;2.40;;;1.77;;
23080;SDS011;11708;50.570;8.532;2023-04-24T01:33:32;3.28;;;1.60;;
23080;SDS011;11708;50.570;8.532;2023-04-24T01:35:57;1.95;;;1.60;;
23080;SDS011;11708;50.570;8.532;2023-04-24T01:38:23;1.80;;;1.48;;
23080;SDS011;11708;50.570;8.532;2023-04-24T01:40:49;3.42;;;1.63;;
23080;SDS011;11708;50.570;8.532;2023-04-24T01:43:15;2.33;;;1.60;;
23080;SDS011;11708;50.570;8.532;2023-04-24T01:45:41;3.55;;;1.70;;
23080;SDS011;11708;50.570;8.532;2023-04-24T01:48:07;2.15;;;1.88;;
23080;SDS011;11708;50.570;8.532;2023-04-24T01:50:32;4.75;;;1.85;;
23080;SDS011;11708;50.570;8.532;2023-04-24T01:52:58;2.53;;;1.55;;
23080;SDS011;11708;50.570;8.532;2023-04-24T01:55:24;4.43;;;2.03;;
23080;SDS011;11708;50.570;8.532;2023-04-24T01:57:49;2.67;;;1.65;;
23080;SDS011;11708;50.570;8.532;2023-04-24T02:00:17;3.35;;;1.70;;
23080;SDS011;11708;50.570;8.532;2023-04-24T02:02:43;2.75;;;1.42;;
23080;SDS011;11708;50.570;8.532;2023-04-24T02:05:10;2.15;;;1.88;;
23080;SDS011;11708;50.570;8.532;2023-04-24T02:07:35;4.85;;;1.98;;
23080;SDS011;11708;50.570;8.532;2023-04-24T02:10:01;2.58;;;2.05;;
23080;SDS011;11708;50.570;8.532;2023-04-24T02:12:28;2.00;;;1.80;;
23080;SDS011;11708;50.570;8.532;2023-04-24T02:14:54;3.10;;;1.80;;
23080;SDS011;11708;50.570;8.532;2023-04-24T02:17:20;4.45;;;1.60;;
23080;SDS011;11708;50.570;8.532;2023-04-24T02:19:46;2.33;;;1.70;;
23080;SDS011;11708;50.570;8.532;2023-04-24T02:22:11;4.70;;;1.60;;
23080;SDS011;11708;50.570;8.532;2023-04-24T02:24:37;1.75;;;1.63;;
23080;SDS011;11708;50.570;8.532;2023-04-24T02:27:03;1.70;;;1.60;;
23080;SDS011;11708;50.570;8.532;2023-04-24T02:29:29;1.42;;;1.33;;
23080;SDS011;11708;50.570;8.532;2023-04-24T02:31:55;3.38;;;1.48;;
23080;SDS011;11708;50.570;8.532;2023-04-24T02:34:21;1.65;;;1.10;;
23080;SDS011;11708;50.570;8.532;2023-04-24T02:36:47;1.73;;;1.13;;
23080;SDS011;11708;50.570;8.532;2023-04-24T02:39:13;2.95;;;1.08;;
23080;SDS011;11708;50.570;8.532;2023-04-24T02:41:41;0.95;;;0.85;;
23080;SDS011;11708;50.570;8.532;2023-04-24T02:44:10;1.73;;;1.27;;
23080;SDS011;11708;50.570;8.532;2023-04-24T02:46:35;0.98;;;0.88;;
23080;SDS011;11708;50.570;8.532;2023-04-24T02:49:03;3.60;;;1.13;;
23080;SDS011;11708;50.570;8.532;2023-04-24T02:51:28;1.67;;;1.10;;
23080;SDS011;11708;50.570;8.532;2023-04-24T02:53:54;1.63;;;1.30;;
23080;SDS011;11708;50.570;8.532;2023-04-24T02:56:20;0.90;;;0.90;;
23080;SDS011;11708;50.570;8.532;2023-04-24T02:58:46;1.10;;;1.00;;
23080;SDS011;11708;50.570;8.532;2023-04-24T03:01:11;0.95;;;0.95;;
23080;SDS011;11708;50.570;8.532;2023-04-24T03:03:37;2.35;;;1.00;;
23080;SDS011;11708;50.570;8.532;2023-04-24T03:06:03;1.10;;;1.00;;
23080;SDS011;11708;50.570;8.532;2023-04-24T03:08:30;2.78;;;1.10;;
23080;SDS011;11708;50.570;8.532;2023-04-24T03:10:56;1.30;;;1.00;;
23080;SDS011;11708;50.570;8.532;2023-04-24T03:13:22;3.08;;;1.20;;
23080;SDS011;11708;50.570;8.532;2023-04-24T03:15:47;2.50;;;1.20;;
23080;SDS011;11708;50.570;8.532;2023-04-24T03:18:13;1.98;;;1.20;;
23080;SDS011;11708;50.570;8.532;2023-04-24T03:20:38;1.45;;;1.35;;
23080;SDS011;11708;50.570;8.532;2023-04-24T03:23:04;1.15;;;1.05;;
23080;SDS011;11708;50.570;8.532;2023-04-24T03:25:30;1.30;;;1.20;;
23080;SDS011;11708;50.570;8.532;2023-04-24T03:27:55;2.28;;;1.10;;
23080;SDS011;11708;50.570;8.532;2023-04-24T03:30:21;1.98;;;1.00;;
23080;SDS011;11708;50.570;8.532;2023-04-24T03:32:46;2.25;;;1.20;;
23080;SDS011;11708;50.570;8.532;2023-04-24T03:35:12;2.00;;;1.48;;
23080;SDS011;11708;50.570;8.532;2023-04-24T03:37:37;1.20;;;1.10;;
23080;SDS011;11708;50.570;8.532;2023-04-24T03:40:03;1.75;;;1.27;;
23080;SDS011;11708;50.570;8.532;2023-04-24T03:42:31;1.85;;;1.33;;
23080;SDS011;11708;50.570;8.532;2023-04-24T03:44:57;2.28;;;1.50;;
23080;SDS011;11708;50.570;8.532;2023-04-24T03:47:23;1.50;;;1.38;;
23080;SDS011;11708;50.570;8.532;2023-04-24T03:49:48;3.80;;;1.33;;
23080;SDS011;11708;50.570;8.532;2023-04-24T03:52:14;1.80;;;1.30;;
23080;SDS011;11708;50.570;8.532;2023-04-24T03:54:39;1.50;;;1.40;;
23080;SDS011;11708;50.570;8.532;2023-04-24T03:57:05;1.48;;;1.30;;
23080;SDS011;11708;50.570;8.532;2023-04-24T03:59:30;2.45;;;1.20;;
23080;SDS011;11708;50.570;8.532;2023-04-24T04:01:56;1.85;;;1.30;;
23080;SDS011;11708;50.570;8.532;2023-04-24T04:04:21;2.50;;;1.58;;
23080;SDS011;11708;50.570;8.532;2023-04-24T04:06:47;1.70;;;1.30;;
23080;SDS011;11708;50.570;8.532;2023-04-24T04:09:13;1.35;;;1.20;;
23080;SDS011;11708;50.570;8.532;2023-04-24T04:11:38;3.38;;;1.70;;
23080;SDS011;11708;50.570;8.532;2023-04-24T04:14:04;2.33;;;1.50;;
23080;SDS011;11708;50.570;8.532;2023-04-24T04:16:30;3.80;;;1.70;;
23080;SDS011;11708;50.570;8.532;2023-04-24T04:18:56;1.60;;;1.38;;
23080;SDS011;11708;50.570;8.532;2023-04-24T04:21:21;2.70;;;1.40;;
23080;SDS011;11708;50.570;8.532;2023-04-24T04:23:47;2.35;;;1.60;;
23080;SDS011;11708;50.570;8.532;2023-04-24T04:26:13;3.53;;;1.95;;
23080;SDS011;11708;50.570;8.532;2023-04-24T04:28:39;3.22;;;1.73;;
23080;SDS011;11708;50.570;8.532;2023-04-24T04:31:05;1.83;;;1.70;;
23080;SDS011;11708;50.570;8.532;2023-04-24T04:33:32;1.55;;;1.40;;
23080;SDS011;11708;50.570;8.532;2023-04-24T04:35:58;2.20;;;1.73;;
23080;SDS011;11708;50.570;8.532;2023-04-24T04:38:25;2.17;;;1.50;;
23080;SDS011;11708;50.570;8.532;2023-04-24T04:40:54;2.00;;;1.80;;
23080;SDS011;11708;50.570;8.532;2023-04-24T04:43:21;3.08;;;1.85;;
23080;SDS011;11708;50.570;8.532;2023-04-24T04:45:49;2.92;;;1.80;;
23080;SDS011;11708;50.570;8.532;2023-04-24T04:48:16;3.20;;;2.20;;
23080;SDS011;11708;50.570;8.532;2023-04-24T04:50:43;2.67;;;1.60;;
23080;SDS011;11708;50.570;8.532;2023-04-24T04:53:09;2.95;;;2.08;;
23080;SDS011;11708;50.570;8.532;2023-04-24T04:55:35;1.85;;;1.55;;
23080;SDS011;11708;50.570;8.532;2023-04-24T04:58:02;3.63;;;2.50;;
23080;SDS011;11708;50.570;8.532;2023-04-24T05:00:28;4.47;;;2.15;;
23080;SDS011;11708;50.570;8.532;2023-04-24T05:02:58;1.83;;;1.73;;
23080;SDS011;11708;50.570;8.532;2023-04-24T05:05:24;2.40;;;2.20;;
23080;SDS011;11708;50.570;8.532;2023-04-24T05:07:49;3.05;;;2.63;;
23080;SDS011;11708;50.570;8.532;2023-04-24T05:10:15;3.80;;;2.15;;
23080;SDS011;11708;50.570;8.532;2023-04-24T05:12:40;2.65;;;2.00;;
23080;SDS011;11708;50.570;8.532;2023-04-24T05:15:06;3.03;;;2.35;;
23080;SDS011;11708;50.570;8.532;2023-04-24T05:17:32;3.00;;;2.00;;
23080;SDS011;11708;50.570;8.532;2023-04-24T05:19:57;2.75;;;2.20;;
23080;SDS011;11708;50.570;8.532;2023-04-24T05:22:23;2.97;;;2.28;;
23080;SDS011;11708;50.570;8.532;2023-04-24T05:24:48;2.58;;;2.20;;
23080;SDS011;11708;50.570;8.532;2023-04-24T05:27:14;4.13;;;2.47;;
23080;SDS011;11708;50.570;8.532;2023-04-24T05:29:40;4.80;;;2.75;;
23080;SDS011;11708;50.570;8.532;2023-04-24T05:32:07;3.60;;;2.45;;
23080;SDS011;11708;50.570;8.532;2023-04-24T05:34:32;3.55;;;2.80;;
23080;SDS011;11708;50.570;8.532;2023-04-24T05:36:58;3.25;;;2.28;;
23080;SDS011;11708;50.570;8.532;2023-04-24T05:39:23;4.90;;;2.92;;
23080;SDS011;11708;50.570;8.532;2023-04-24T05:41:50;3.45;;;2.78;;
23080;SDS011;11708;50.570;8.532;2023-04-24T05:44:15;3.42;;;2.25;;
23080;SDS011;11708;50.570;8.532;2023-04-24T05:46:41;4.18;;;2.88;;
23080;SDS011;11708;50.570;8.532;2023-04-24T05:49:07;4.50;;;2.80;;
23080;SDS011;11708;50.570;8.532;2023-04-24T05:51:32;3.47;;;2.70;;
23080;SDS011;11708;50.570;8.532;2023-04-24T05:53:58;3.20;;;2.28;;
23080;SDS011;11708;50.570;8.532;2023-04-24T05:56:23;2.78;;;2.38;;
23080;SDS011;11708;50.570;8.532;2023-04-24T05:58:49;2.33;;;2.10;;
23080;SDS011;11708;50.570;8.532;2023-04-24T06:01:14;2.22;;;2.03;;
23080;SDS011;11708;50.570;8.532;2023-04-24T06:03:40;4.45;;;2.28;;
23080;SDS011;11708;50.570;8.532;2023-04-24T06:06:06;4.70;;;2.22;;
23080;SDS011;11708;50.570;8.532;2023-04-24T06:08:32;2.78;;;2.40;;
23080;SDS011;11708;50.570;8.532;2023-04-24T06:10:58;3.10;;;2.30;;
23080;SDS011;11708;50.570;8.532;2023-04-24T06:13:24;3.00;;;2.15;;
23080;SDS011;11708;50.570;8.532;2023-04-24T06:15:49;5.50;;;2.60;;
23080;SDS011;11708;50.570;8.532;2023-04-24T06:18:15;4.50;;;2.90;;
23080;SDS011;11708;50.570;8.532;2023-04-24T06:20:41;3.40;;;2.45;;
23080;SDS011;11708;50.570;8.532;2023-04-24T06:23:07;3.95;;;2.53;;
23080;SDS011;11708;50.570;8.532;2023-04-24T06:25:32;5.03;;;3.20;;
23080;SDS011;11708;50.570;8.532;2023-04-24T06:27:58;4.20;;;3.53;;
23080;SDS011;11708;50.570;8.532;2023-04-24T06:30:24;6.00;;;3.22;;
23080;SDS011;11708;50.570;8.532;2023-04-24T06:32:50;4.47;;;3.53;;
23080;SDS011;11708;50.570;8.532;2023-04-24T06:35:15;5.18;;;3.67;;
23080;SDS011;11708;50.570;8.532;2023-04-24T06:37:41;3.97;;;2.90;;
23080;SDS011;11708;50.570;8.532;2023-04-24T06:40:08;11.60;;;3.53;;
23080;SDS011;11708;50.570;8.532;2023-04-24T06:42:34;3.58;;;3.20;;
23080;SDS011;11708;50.570;8.532;2023-04-24T06:45:00;6.55;;;3.28;;
23080;SDS011;11708;50.570;8.532;2023-04-24T06:47:26;4.10;;;3.53;;
23080;SDS011;11708;50.570;8.532;2023-04-24T06:49:52;6.65;;;4.05;;
23080;SDS011;11708;50.570;8.532;2023-04-24T06:52:18;6.90;;;4.07;;
23080;SDS011;11708;50.570;8.532;2023-04-24T06:54:44;5.15;;;3.45;;
23080;SDS011;11708;50.570;8.532;2023-04-24T06:57:10;6.85;;;5.18;;
23080;SDS011;11708;50.570;8.532;2023-04-24T06:59:35;5.07;;;3.83;;
23080;SDS011;11708;50.570;8.532;2023-04-24T07:02:01;8.65;;;4.28;;
23080;SDS011;11708;50.570;8.532;2023-04-24T07:04:28;6.90;;;3.78;;
23080;SDS011;11708;50.570;8.532;2023-04-24T07:06:54;6.50;;;4.35;;
23080;SDS011;11708;50.570;8.532;2023-04-24T07:09:21;5.75;;;4.40;;
23080;SDS011;11708;50.570;8.532;2023-04-24T07:11:47;5.53;;;4.05;;
23080;SDS011;11708;50.570;8.532;2023-04-24T07:14:13;4.97;;;4.28;;
23080;SDS011;11708;50.570;8.532;2023-04-24T07:16:39;7.15;;;3.83;;
23080;SDS011;11708;50.570;8.532;2023-04-24T07:19:04;5.03;;;4.07;;
23080;SDS011;11708;50.570;8.532;2023-04-24T07:21:30;6.93;;;4.97;;
23080;SDS011;11708;50.570;8.532;2023-04-24T07:23:57;6.05;;;4.53;;
23080;SDS011;11708;50.570;8.532;2023-04-24T07:26:23;9.48;;;5.22;;
23080;SDS011;11708;50.570;8.532;2023-04-24T07:28:49;5.78;;;4.57;;
23080;SDS011;11708;50.570;8.532;2023-04-24T07:31:14;7.03;;;5.00;;
23080;SDS011;11708;50.570;8.532;2023-04-24T07:33:40;6.57;;;4.78;;
23080;SDS011;11708;50.570;8.532;2023-04-24T07:36:06;6.20;;;4.55;;
23080;SDS011;11708;50.570;8.532;2023-04-24T07:38:32;8.57;;;4.45;;
23080;SDS011;11708;50.570;8.532;2023-04-24T07:40:58;5.60;;;3.97;;
23080;SDS011;11708;50.570;8.532;2023-04-24T07:43:24;7.80;;;4.95;;
23080;SDS011;11708;50.570;8.532;2023-04-24T07:45:50;6.97;;;4.22;;
23080;SDS011;11708;50.570;8.532;2023-04-24T07:48:17;6.30;;;4.80;;
23080;SDS011;11708;50.570;8.532;2023-04-24T07:50:43;7.70;;;4.28;;
23080;SDS011;11708;50.570;8.532;2023-04-24T07:53:10;6.85;;;4.53;;
23080;SDS011;11708;50.570;8.532;2023-04-24T07:55:37;4.90;;;3.90;;
23080;SDS011;11708;50.570;8.532;2023-04-24T07:58:02;4.93;;;4.15;;
23080;SDS011;11708;50.570;8.532;2023-04-24T08:00:28;5.07;;;4.05;;
23080;SDS011;11708;50.570;8.532;2023-04-24T08:02:54;4.85;;;4.13;;
23080;SDS011;11708;50.570;8.532;2023-04-24T08:05:20;7.05;;;4.22;;
23080;SDS011;11708;50.570;8.532;2023-04-24T08:07:45;5.35;;;3.80;;
23080;SDS011;11708;50.570;8.532;2023-04-24T08:10:13;5.65;;;4.20;;
23080;SDS011;11708;50.570;8.532;2023-04-24T08:12:40;5.68;;;3.90;;
23080;SDS011;11708;50.570;8.532;2023-04-24T08:15:06;6.10;;;4.53;;
23080;SDS011;11708;50.570;8.532;2023-04-24T08:17:32;4.55;;;3.83;;
23080;SDS011;11708;50.570;8.532;2023-04-24T08:19:59;6.57;;;3.90;;
23080;SDS011;11708;50.570;8.532;2023-04-24T08:22:26;7.00;;;3.58;;
23080;SDS011;11708;50.570;8.532;2023-04-24T08:24:53;7.32;;;3.95;;
23080;SDS011;11708;50.570;8.532;2023-04-24T08:27:19;7.63;;;4.10;;
23080;SDS011;11708;50.570;8.532;2023-04-24T08:29:45;4.75;;;3.70;;
23080;SDS011;11708;50.570;8.532;2023-04-24T08:32:11;4.75;;;3.78;;
23080;SDS011;11708;50.570;8.532;2023-04-24T08:34:37;5.70;;;4.15;;
23080;SDS011;11708;50.570;8.532;2023-04-24T08:37:04;5.28;;;3.40;;
23080;SDS011;11708;50.570;8.532;2023-04-24T08:39:30;4.70;;;3.70;;
23080;SDS011;11708;50.570;8.532;2023-04-24T08:41:55;5.28;;;3.92;;
23080;SDS011;11708;50.570;8.532;2023-04-24T08:44:21;4.40;;;3.72;;
23080;SDS011;11708;50.570;8.532;2023-04-24T08:46:47;4.75;;;3.40;;
23080;SDS011;11708;50.570;8.532;2023-04-24T08:49:14;4.82;;;3.60;;
23080;SDS011;11708;50.570;8.532;2023-04-24T08:51:42;5.18;;;3.63;;
23080;SDS011;11708;50.570;8.532;2023-04-24T08:54:12;4.90;;;3.50;;
23080;SDS011;11708;50.570;8.532;2023-04-24T08:56:38;6.03;;;3.70;;
23080;SDS011;11708;50.570;8.532;2023-04-24T08:59:07;4.22;;;3.10;;
23080;SDS011;11708;50.570;8.532;2023-04-24T09:01:34;3.60;;;3.13;;
23080;SDS011;11708;50.570;8.532;2023-04-24T09:04:02;4.07;;;3.03;;
23080;SDS011;11708;50.570;8.532;2023-04-24T09:06:29;3.53;;;2.90;;
23080;SDS011;11708;50.570;8.532;2023-04-24T09:08:57;2.90;;;2.60;;
23080;SDS011;11708;50.570;8.532;2023-04-24T09:11:26;3.22;;;2.90;;
23080;SDS011;11708;50.570;8.532;2023-04-24T09:13:54;4.65;;;2.78;;
23080;SDS011;11708;50.570;8.532;2023-04-24T09:16:22;3.65;;;2.88;;
23080;SDS011;11708;50.570;8.532;2023-04-24T09:18:49;5.78;;;2.70;;
23080;SDS011;11708;50.570;8.532;2023-04-24T09:21:15;4.05;;;3.15;;
23080;SDS011;11708;50.570;8.532;2023-04-24T09:23:40;3.70;;;2.67;;
23080;SDS011;11708;50.570;8.532;2023-04-24T09:26:06;3.35;;;2.80;;
23080;SDS011;11708;50.570;8.532;2023-04-24T09:28:36;5.10;;;2.58;;
23080;SDS011;11708;50.570;8.532;2023-04-24T09:31:06;4.72;;;2.28;;
23080;SDS011;11708;50.570;8.532;2023-04-24T09:34:00;3.78;;;2.90;;
23080;SDS011;11708;50.570;8.532;2023-04-24T09:36:34;2.58;;;2.20;;
23080;SDS011;11708;50.570;8.532;2023-04-24T09:39:06;3.53;;;2.50;;
23080;SDS011;11708;50.570;8.532;2023-04-24T09:41:33;2.53;;;2.22;;
23080;SDS011;11708;50.570;8.532;2023-04-24T09:44:10;4.13;;;2.53;;
23080;SDS011;11708;50.570;8.532;2023-04-24T09:46:41;4.55;;;2.63;;
23080;SDS011;11708;50.570;8.532;2023-04-24T09:49:12;5.47;;;2.40;;
23080;SDS011;11708;50.570;8.532;2023-04-24T09:51:39;3.00;;;2.65;;
23080;SDS011;11708;50.570;8.532;2023-04-24T09:54:15;2.60;;;2.40;;
23080;SDS011;11708;50.570;8.532;2023-04-24T09:56:42;4.70;;;2.78;;
23080;SDS011;11708;50.570;8.532;2023-04-24T09:59:10;6.53;;;3.38;;
23080;SDS011;11708;50.570;8.532;2023-04-24T10:01:35;3.95;;;3.08;;
23080;SDS011;11708;50.570;8.532;2023-04-24T10:04:03;2.72;;;2.22;;
23080;SDS011;11708;50.570;8.532;2023-04-24T10:06:35;3.35;;;2.40;;
23080;SDS011;11708;50.570;8.532;2023-04-24T10:09:01;3.80;;;2.53;;
23080;SDS011;11708;50.570;8.532;2023-04-24T10:11:28;2.42;;;1.70;;
23080;SDS011;11708;50.570;8.532;2023-04-24T10:13:55;3.53;;;2.50;;
23080;SDS011;11708;50.570;8.532;2023-04-24T10:16:22;2.80;;;1.80;;
23080;SDS011;11708;50.570;8.532;2023-04-24T10:18:48;1.63;;;1.50;;
23080;SDS011;11708;50.570;8.532;2023-04-24T10:21:14;1.85;;;1.23;;
23080;SDS011;11708;50.570;8.532;2023-04-24T10:23:41;2.20;;;1.27;;
23080;SDS011;11708;50.570;8.532;2023-04-24T10:26:08;1.60;;;1.30;;
23080;SDS011;11708;50.570;8.532;2023-04-24T10:28:36;1.63;;;1.23;;
23080;SDS011;11708;50.570;8.532;2023-04-24T10:31:01;1.80;;;1.20;;
23080;SDS011;11708;50.570;8.532;2023-04-24T10:33:27;1.40;;;1.20;;
23080;SDS011;11708;50.570;8.532;2023-04-24T10:35:55;1.27;;;1.15;;
23080;SDS011;11708;50.570;8.532;2023-04-24T10:38:24;1.48;;;1.17;;
23080;SDS011;11708;50.570;8.532;2023-04-24T10:40:51;1.38;;;1.00;;
23080;SDS011;11708;50.570;8.532;2023-04-24T10:43:31;1.40;;;1.20;;
23080;SDS011;11708;50.570;8.532;2023-04-24T10:46:04;1.88;;;1.25;;
23080;SDS011;11708;50.570;8.532;2023-04-24T10:48:31;1.50;;;1.20;;
23080;SDS011;11708;50.570;8.532;2023-04-24T10:50:57;1.20;;;1.00;;
23080;SDS011;11708;50.570;8.532;2023-04-24T10:53:23;0.80;;;0.70;;
23080;SDS011;11708;50.570;8.532;2023-04-24T10:55:59;0.45;;;0.45;;
23080;SDS011;11708;50.570;8.532;2023-04-24T11:01:03;2.20;;;2.10;;
23080;SDS011;11708;50.570;8.532;2023-04-24T11:03:30;0.57;;;0.52;;
23080;SDS011;11708;50.570;8.532;2023-04-24T11:11:09;0.60;;;0.55;;
23080;SDS011;11708;50.570;8.532;2023-04-24T11:19:05;0.85;;;0.50;;
23080;SDS011;11708;50.570;8.532;2023-04-24T11:24:26;0.50;;;0.50;;
23080;SDS011;11708;50.570;8.532;2023-04-24T11:27:16;2.60;;;0.88;;
23080;SDS011;11708;50.570;8.532;2023-04-24T11:34:55;0.57;;;0.50;;
23080;SDS011;11708;50.570;8.532;2023-04-24T11:37:36;0.55;;;0.43;;
23080;SDS011;11708;50.570;8.532;2023-04-24T11:40:09;1.10;;;0.70;;
23080;SDS011;11708;50.570;8.532;2023-04-24T11:42:37;1.27;;;0.75;;
23080;SDS011;11708;50.570;8.532;2023-04-24T11:45:47;0.45;;;0.45;;
23080;SDS011;11708;50.570;8.532;2023-04-24T11:47:53;0.82;;;0.70;;
23080;SDS011;11708;50.570;8.532;2023-04-24T11:50:21;0.70;;;0.63;;
23080;SDS011;11708;50.570;8.532;2023-04-24T11:52:48;0.82;;;0.60;;
23080;SDS011;11708;50.570;8.532;2023-04-24T11:57:44;4.55;;;0.80;;
23080;SDS011;11708;50.570;8.532;2023-04-24T12:02:43;0.70;;;0.60;;
23080;SDS011;11708;50.570;8.532;2023-04-24T12:05:09;0.98;;;0.70;;
23080;SDS011;11708;50.570;8.532;2023-04-24T12:07:43;0.77;;;0.60;;
23080;SDS011;11708;50.570;8.532;2023-04-24T12:10:11;0.63;;;0.63;;
23080;SDS011;11708;50.570;8.532;2023-04-24T12:12:37;1.45;;;0.70;;
23080;SDS011;11708;50.570;8.532;2023-04-24T12:15:06;0.70;;;0.70;;
23080;SDS011;11708;50.570;8.532;2023-04-24T12:17:33;1.63;;;1.00;;
23080;SDS011;11708;50.570;8.532;2023-04-24T12:20:02;1.85;;;1.00;;
23080;SDS011;11708;50.570;8.532;2023-04-24T12:25:15;2.08;;;1.65;;
23080;SDS011;11708;50.570;8.532;2023-04-24T12:27:43;3.72;;;2.03;;
23080;SDS011;11708;50.570;8.532;2023-04-24T12:30:10;2.25;;;1.88;;
23080;SDS011;11708;50.570;8.532;2023-04-24T12:32:48;3.03;;;1.65;;
23080;SDS011;11708;50.570;8.532;2023-04-24T12:35:21;3.15;;;2.17;;
23080;SDS011;11708;50.570;8.532;2023-04-24T12:37:48;4.35;;;2.33;;
23080;SDS011;11708;50.570;8.532;2023-04-24T12:40:15;4.28;;;2.15;;
23080;SDS011;11708;50.570;8.532;2023-04-24T12:42:43;3.92;;;2.10;;
23080;SDS011;11708;50.570;8.532;2023-04-24T12:45:09;3.22;;;2.13;;
23080;SDS011;11708;50.570;8.532;2023-04-24T12:47:37;3.40;;;2.63;;
23080;SDS011;11708;50.570;8.532;2023-04-24T12:50:03;4.72;;;2.40;;
23080;SDS011;11708;50.570;8.532;2023-04-24T12:52:32;5.10;;;2.60;;
23080;SDS011;11708;50.570;8.532;2023-04-24T12:54:58;5.55;;;3.03;;
23080;SDS011;11708;50.570;8.532;2023-04-24T12:57:25;5.60;;;2.63;;
23080;SDS011;11708;50.570;8.532;2023-04-24T12:59:53;4.32;;;2.97;;
23080;SDS011;11708;50.570;8.532;2023-04-24T13:02:21;4.68;;;2.50;;
23080;SDS011;11708;50.570;8.532;2023-04-24T13:04:48;4.65;;;3.25;;
23080;SDS011;11708;50.570;8.532;2023-04-24T13:07:15;3.58;;;2.78;;
23080;SDS011;11708;50.570;8.532;2023-04-24T13:09:41;7.20;;;3.67;;
23080;SDS011;11708;50.570;8.532;2023-04-24T13:12:08;5.80;;;3.05;;
23080;SDS011;11708;50.570;8.532;2023-04-24T13:14:34;4.43;;;3.38;;
23080;SDS011;11708;50.570;8.532;2023-04-24T13:17:00;4.60;;;2.85;;
23080;SDS011;11708;50.570;8.532;2023-04-24T13:19:26;5.15;;;3.00;;
23080;SDS011;11708;50.570;8.532;2023-04-24T13:21:54;6.00;;;2.85;;
23080;SDS011;11708;50.570;8.532;2023-04-24T13:24:21;6.40;;;4.03;;
23080;SDS011;11708;50.570;8.532;2023-04-24T13:26:51;5.25;;;3.30;;
23080;SDS011;11708;50.570;8.532;2023-04-24T13:29:17;6.18;;;5.22;;
23080;SDS011;11708;50.570;8.532;2023-04-24T13:31:42;5.20;;;2.30;;
23080;SDS011;11708;50.570;8.532;2023-04-24T13:34:08;3.42;;;2.47;;
23080;SDS011;11708;50.570;8.532;2023-04-24T13:36:34;7.35;;;2.72;;
23080;SDS011;11708;50.570;8.532;2023-04-24T13:39:00;5.65;;;2.90;;
23080;SDS011;11708;50.570;8.532;2023-04-24T13:41:26;7.32;;;2.88;;
23080;SDS011;11708;50.570;8.532;2023-04-24T13:43:51;6.43;;;3.10;;
23080;SDS011;11708;50.570;8.532;2023-04-24T13:46:17;4.43;;;2.45;;
23080;SDS011;11708;50.570;8.532;2023-04-24T13:48:42;2.72;;;1.90;;
23080;SDS011;11708;50.570;8.532;2023-04-24T13:51:08;4.38;;;1.88;;
23080;SDS011;11708;50.570;8.532;2023-04-24T13:53:34;6.00;;;2.13;;
23080;SDS011;11708;50.570;8.532;2023-04-24T13:56:03;2.40;;;1.90;;
23080;SDS011;11708;50.570;8.532;2023-04-24T13:58:28;2.35;;;1.80;;
23080;SDS011;11708;50.570;8.532;2023-04-24T14:00:54;2.25;;;2.00;;
23080;SDS011;11708;50.570;8.532;2023-04-24T14:03:20;2.85;;;2.15;;
23080;SDS011;11708;50.570;8.532;2023-04-24T14:05:46;7.00;;;2.55;;
23080;SDS011;11708;50.570;8.532;2023-04-24T14:08:11;3.60;;;2.30;;
23080;SDS011;11708;50.570;8.532;2023-04-24T14:10:37;4.75;;;2.55;;
23080;SDS011;11708;50.570;8.532;2023-04-24T14:13:02;5.32;;;2.53;;
23080;SDS011;11708;50.570;8.532;2023-04-24T14:15:28;4.93;;;2.38;;
23080;SDS011;11708;50.570;8.532;2023-04-24T14:17:54;4.72;;;2.83;;
23080;SDS011;11708;50.570;8.532;2023-04-24T14:20:20;4.60;;;3.03;;
23080;SDS011;11708;50.570;8.532;2023-04-24T14:22:45;4.40;;;2.80;;
23080;SDS011;11708;50.570;8.532;2023-04-24T14:25:11;6.00;;;3.03;;
23080;SDS011;11708;50.570;8.532;2023-04-24T14:27:36;4.38;;;2.53;;
23080;SDS011;11708;50.570;8.532;2023-04-24T14:30:02;6.00;;;3.40;;
23080;SDS011;11708;50.570;8.532;2023-04-24T14:32:29;4.18;;;2.92;;
23080;SDS011;11708;50.570;8.532;2023-04-24T14:34:54;5.25;;;3.00;;
23080;SDS011;11708;50.570;8.532;2023-04-24T14:37:20;4.93;;;3.28;;
23080;SDS011;11708;50.570;8.532;2023-04-24T14:39:46;5.85;;;3.15;;
23080;SDS011;11708;50.570;8.532;2023-04-24T14:42:11;6.55;;;3.30;;
23080;SDS011;11708;50.570;8.532;2023-04-24T14:44:37;5.97;;;3.63;;
23080;SDS011;11708;50.570;8.532;2023-04-24T14:47:02;5.53;;;3.15;;
23080;SDS011;11708;50.570;8.532;2023-04-24T14:49:28;5.40;;;3.28;;
23080;SDS011;11708;50.570;8.532;2023-04-24T14:51:53;6.43;;;3.35;;
23080;SDS011;11708;50.570;8.532;2023-04-24T14:54:19;4.97;;;3.00;;
23080;SDS011;11708;50.570;8.532;2023-04-24T14:56:47;6.00;;;3.45;;
23080;SDS011;11708;50.570;8.532;2023-04-24T14:59:14;5.85;;;3.20;;
23080;SDS011;11708;50.570;8.532;2023-04-24T15:01:39;5.65;;;3.35;;
23080;SDS011;11708;50.570;8.532;2023-04-24T15:04:05;9.15;;;3.85;;
23080;SDS011;11708;50.570;8.532;2023-04-24T15:06:31;9.80;;;4.07;;
23080;SDS011;11708;50.570;8.532;2023-04-24T15:08:57;6.72;;;3.50;;
23080;SDS011;11708;50.570;8.532;2023-04-24T15:11:22;4.55;;;3.67;;
23080;SDS011;11708;50.570;8.532;2023-04-24T15:13:48;6.25;;;3.67;;